Time;durP1;ratioP1;P1;durP2;ratioP2;P2;SDS_P1;SDS_P2;PMS_P1;PMS_P2;Temp;Humidity;BMP_temperature;BMP_pressure;BME280_temperature;BME280_humidity;BME280_pressure;Samples;Min_cycle;Max_cycle;Signal;HPM_P1;HPM_P2
2023/05/23 00:01:15;;;;;;;6.78;5.03;;;;;;;;;;5041364;28;20029;-76
2023/05/23 00:03:41;;;;;;;8.98;5.78;;;;;;;;;;5043634;28;20025;-76
2023/05/23 00:06:07;;;;;;;6.70;4.78;;;;;;;;;;5065812;28;20739;-76
2023/05/23 00:08:32;;;;;;;7.70;5.15;;;;;;;;;;5063624;28;20029;-76
2023/05/23 00:10:57;;;;;;;8.80;5.45;;;;;;;;;;5063596;28;20109;-76
2023/05/23 00:13:23;;;;;;;7.43;5.45;;;;;;;;;;5044565;28;20017;-77
2023/05/23 00:15:48;;;;;;;7.75;5.68;;;;;;;;;;5061617;28;20052;-77
2023/05/23 00:18:15;;;;;;;9.32;5.88;;;;;;;;;;5037826;28;20536;-78
2023/05/23 00:20:43;;;;;;;8.25;5.53;;;;;;;;;;5048315;28;20039;-76
2023/05/23 00:23:10;;;;;;;9.73;6.05;;;;;;;;;;5059993;28;20080;-77
2023/05/23 00:25:36;;;;;;;8.77;5.38;;;;;;;;;;5042689;28;20470;-76
2023/05/23 00:28:03;;;;;;;9.90;6.07;;;;;;;;;;5058908;28;20171;-77
2023/05/23 00:30:32;;;;;;;8.57;5.65;;;;;;;;;;5042479;28;20106;-76
2023/05/23 00:32:59;;;;;;;7.95;5.20;;;;;;;;;;5073701;28;20021;-77
2023/05/23 00:35:25;;;;;;;11.07;6.35;;;;;;;;;;5037730;28;20028;-77
2023/05/23 00:37:50;;;;;;;10.35;5.60;;;;;;;;;;5035820;28;20037;-77
2023/05/23 00:40:19;;;;;;;10.32;5.75;;;;;;;;;;5065635;28;20040;-77
2023/05/23 00:42:44;;;;;;;9.48;5.47;;;;;;;;;;5039434;28;20032;-76
2023/05/23 00:45:13;;;;;;;8.50;5.57;;;;;;;;;;5056703;28;20796;-76
2023/05/23 00:47:39;;;;;;;12.15;5.43;;;;;;;;;;5044295;28;20052;-76
2023/05/23 00:50:08;;;;;;;9.98;6.18;;;;;;;;;;5052741;28;20043;-76
2023/05/23 00:52:34;;;;;;;9.05;6.00;;;;;;;;;;5039607;28;20025;-76
2023/05/23 00:54:59;;;;;;;8.38;5.65;;;;;;;;;;5059039;28;20032;-76
2023/05/23 00:57:25;;;;;;;9.70;5.70;;;;;;;;;;5044677;28;20032;-76
2023/05/23 00:59:51;;;;;;;9.98;5.50;;;;;;;;;;5059325;28;20461;-75
2023/05/23 01:02:16;;;;;;;9.05;5.95;;;;;;;;;;5055189;28;20017;-76
2023/05/23 01:04:42;;;;;;;9.32;5.68;;;;;;;;;;5052896;28;20029;-76
2023/05/23 01:07:09;;;;;;;10.85;6.20;;;;;;;;;;5043404;28;20036;-76
2023/05/23 01:09:35;;;;;;;12.30;6.75;;;;;;;;;;5062226;28;20485;-77
2023/05/23 01:12:19;;;;;;;11.93;6.63;;;;;;;;;;5058299;28;20221;-76
2023/05/23 01:15:00;;;;;;;12.63;6.53;;;;;;;;;;5058751;28;20036;-76
2023/05/23 01:17:40;;;;;;;11.85;6.35;;;;;;;;;;5057921;28;20420;-77
2023/05/23 01:20:11;;;;;;;10.70;6.43;;;;;;;;;;5057711;28;20476;-76
2023/05/23 01:23:01;;;;;;;13.43;6.82;;;;;;;;;;5039983;28;20024;-77
2023/05/23 01:25:45;;;;;;;12.65;6.88;;;;;;;;;;5057244;28;20041;-76
2023/05/23 01:28:16;;;;;;;12.38;6.28;;;;;;;;;;5033873;28;20397;-77
2023/05/23 01:30:44;;;;;;;10.63;6.20;;;;;;;;;;5056262;28;20027;-77
2023/05/23 01:33:12;;;;;;;10.68;5.85;;;;;;;;;;5041836;28;20021;-78
2023/05/23 01:35:38;;;;;;;10.38;5.68;;;;;;;;;;5032314;28;20025;-78
2023/05/23 01:38:04;;;;;;;8.23;5.03;;;;;;;;;;5031483;28;20025;-77
2023/05/23 01:40:29;;;;;;;9.80;5.40;;;;;;;;;;5056860;28;20020;-76
2023/05/23 01:42:58;;;;;;;11.02;5.97;;;;;;;;;;5056585;28;20040;-77
2023/05/23 01:45:25;;;;;;;13.32;7.00;;;;;;;;;;5059999;28;20021;-76
2023/05/23 01:47:53;;;;;;;13.52;6.50;;;;;;;;;;5063788;28;20029;-76
2023/05/23 01:50:19;;;;;;;11.48;6.18;;;;;;;;;;5058372;28;20053;-77
2023/05/23 01:52:46;;;;;;;11.15;5.90;;;;;;;;;;5050110;28;20151;-77
2023/05/23 01:55:14;;;;;;;12.23;7.00;;;;;;;;;;5042291;28;20031;-76
2023/05/23 01:57:40;;;;;;;12.25;6.35;;;;;;;;;;5074388;28;20036;-76
2023/05/23 02:00:06;;;;;;;10.57;5.95;;;;;;;;;;5067439;28;20025;-76
2023/05/23 02:02:34;;;;;;;9.75;6.18;;;;;;;;;;5061914;28;20107;-76
2023/05/23 02:05:00;;;;;;;10.27;6.15;;;;;;;;;;5071160;28;20496;-77
2023/05/23 02:07:25;;;;;;;11.10;6.50;;;;;;;;;;5069441;28;20024;-76
2023/05/23 02:09:50;;;;;;;12.18;6.68;;;;;;;;;;5061463;28;20021;-76
2023/05/23 02:12:16;;;;;;;10.88;6.13;;;;;;;;;;5045912;28;20021;-76
2023/05/23 02:14:41;;;;;;;10.68;6.25;;;;;;;;;;5060261;28;20022;-76
2023/05/23 02:17:10;;;;;;;12.60;6.03;;;;;;;;;;5065409;28;20095;-76
2023/05/23 02:19:35;;;;;;;9.75;6.05;;;;;;;;;;5055448;28;20046;-76
2023/05/23 02:22:01;;;;;;;13.13;6.25;;;;;;;;;;5056098;28;20037;-75
2023/05/23 02:24:26;;;;;;;10.80;6.25;;;;;;;;;;5074171;28;20033;-77
2023/05/23 02:26:52;;;;;;;10.35;5.78;;;;;;;;;;5053954;28;20121;-76
2023/05/23 02:29:17;;;;;;;9.60;6.00;;;;;;;;;;5063740;28;20048;-76
2023/05/23 02:31:43;;;;;;;11.13;5.47;;;;;;;;;;5062473;28;20021;-77
2023/05/23 02:34:08;;;;;;;10.77;6.03;;;;;;;;;;5060376;28;20032;-77
2023/05/23 02:36:35;;;;;;;10.77;5.65;;;;;;;;;;5047762;28;20033;-76
2023/05/23 02:39:05;;;;;;;9.63;4.70;;;;;;;;;;5044252;28;20033;-77
2023/05/23 02:41:30;;;;;;;7.55;4.30;;;;;;;;;;5047486;28;20025;-76
2023/05/23 02:43:57;;;;;;;9.52;4.78;;;;;;;;;;5059130;28;20043;-76
2023/05/23 02:46:22;;;;;;;7.22;4.07;;;;;;;;;;5054346;28;20060;-76
2023/05/23 02:48:48;;;;;;;6.90;4.35;;;;;;;;;;5047760;28;20045;-77
2023/05/23 02:51:13;;;;;;;8.48;4.20;;;;;;;;;;5066465;28;20025;-76
2023/05/23 02:53:38;;;;;;;6.50;3.67;;;;;;;;;;5035796;28;20101;-75
2023/05/23 02:56:04;;;;;;;5.97;3.67;;;;;;;;;;5064346;28;20036;-76
2023/05/23 02:58:30;;;;;;;7.80;3.97;;;;;;;;;;5046479;28;20025;-76
2023/05/23 03:00:56;;;;;;;6.22;3.80;;;;;;;;;;5064609;28;20020;-76
2023/05/23 03:03:21;;;;;;;6.00;3.38;;;;;;;;;;5049989;28;20021;-76
2023/05/23 03:05:47;;;;;;;5.85;3.45;;;;;;;;;;5058398;28;20052;-75
2023/05/23 03:08:12;;;;;;;6.90;3.63;;;;;;;;;;5037615;28;20021;-78
2023/05/23 03:10:38;;;;;;;10.35;3.90;;;;;;;;;;5054554;28;20025;-77
2023/05/23 03:13:03;;;;;;;6.47;3.40;;;;;;;;;;5040647;28;20109;-76
2023/05/23 03:15:29;;;;;;;5.38;3.72;;;;;;;;;;5058514;28;20037;-76
2023/05/23 03:17:54;;;;;;;6.88;3.60;;;;;;;;;;5044307;28;20035;-76
2023/05/23 03:20:19;;;;;;;8.60;4.35;;;;;;;;;;5043283;28;20068;-77
2023/05/23 03:22:45;;;;;;;7.95;3.63;;;;;;;;;;5037273;28;20085;-77
2023/05/23 03:25:10;;;;;;;6.40;3.70;;;;;;;;;;5058393;28;20129;-77
2023/05/23 03:27:35;;;;;;;6.53;3.67;;;;;;;;;;5045542;28;20024;-76
2023/05/23 03:30:03;;;;;;;7.15;3.85;;;;;;;;;;5057923;28;20036;-76
2023/05/23 03:32:28;;;;;;;6.82;3.90;;;;;;;;;;5055228;28;20025;-76
2023/05/23 03:34:53;;;;;;;6.47;3.92;;;;;;;;;;5058005;28;20084;-76
2023/05/23 03:37:19;;;;;;;6.68;3.90;;;;;;;;;;5059496;28;20031;-77
2023/05/23 03:39:45;;;;;;;6.82;3.45;;;;;;;;;;5048613;28;20055;-76
2023/05/23 03:42:10;;;;;;;6.05;3.75;;;;;;;;;;5040497;28;20053;-77
2023/05/23 03:44:35;;;;;;;6.85;4.00;;;;;;;;;;5044031;28;20036;-76
2023/05/23 03:47:01;;;;;;;7.25;3.78;;;;;;;;;;5062331;28;20028;-75
2023/05/23 03:49:26;;;;;;;7.82;4.30;;;;;;;;;;5062612;28;20040;-76
2023/05/23 03:51:51;;;;;;;6.93;4.50;;;;;;;;;;5075894;28;20076;-78
2023/05/23 03:54:17;;;;;;;11.00;4.55;;;;;;;;;;5055590;28;20025;-76
2023/05/23 03:56:43;;;;;;;10.63;4.10;;;;;;;;;;5055441;28;20029;-76
2023/05/23 03:59:08;;;;;;;7.15;3.97;;;;;;;;;;5038531;28;20131;-76
2023/05/23 04:01:33;;;;;;;7.38;4.30;;;;;;;;;;5066379;28;20035;-76
2023/05/23 04:03:59;;;;;;;6.47;3.88;;;;;;;;;;5064278;28;20083;-76
2023/05/23 04:06:25;;;;;;;9.30;4.35;;;;;;;;;;5046456;28;20100;-75
2023/05/23 04:08:50;;;;;;;7.78;4.05;;;;;;;;;;5061165;28;20029;-76
2023/05/23 04:11:16;;;;;;;9.50;4.82;;;;;;;;;;5060207;28;20033;-76
2023/05/23 04:13:42;;;;;;;13.13;4.85;;;;;;;;;;5056373;28;20057;-76
2023/05/23 04:16:08;;;;;;;15.10;5.20;;;;;;;;;;5058742;28;20033;-77
2023/05/23 04:18:34;;;;;;;9.48;4.65;;;;;;;;;;5047365;28;20057;-76
2023/05/23 04:21:00;;;;;;;14.02;5.07;;;;;;;;;;5066535;28;20036;-75
2023/05/23 04:23:25;;;;;;;9.48;5.03;;;;;;;;;;5053356;28;20034;-76
2023/05/23 04:25:51;;;;;;;11.57;4.93;;;;;;;;;;5059631;28;20035;-76
2023/05/23 04:28:16;;;;;;;9.20;4.90;;;;;;;;;;5056803;28;20029;-76
2023/05/23 04:30:42;;;;;;;13.25;5.53;;;;;;;;;;5039719;28;21540;-76
2023/05/23 04:33:08;;;;;;;10.40;4.65;;;;;;;;;;5036085;28;20025;-77
2023/05/23 04:35:37;;;;;;;11.73;5.30;;;;;;;;;;5059762;28;20027;-76
2023/05/23 04:38:03;;;;;;;9.88;4.40;;;;;;;;;;5051645;28;20392;-76
2023/05/23 04:40:29;;;;;;;12.60;5.30;;;;;;;;;;5041000;28;20031;-76
2023/05/23 04:42:55;;;;;;;13.63;5.35;;;;;;;;;;5045941;28;20114;-77
2023/05/23 04:45:21;;;;;;;13.02;5.57;;;;;;;;;;5039860;28;20051;-76
2023/05/23 04:47:46;;;;;;;13.27;5.32;;;;;;;;;;5063084;28;20025;-76
2023/05/23 04:50:13;;;;;;;13.32;5.40;;;;;;;;;;5061342;28;21243;-77
2023/05/23 04:52:39;;;;;;;14.60;4.97;;;;;;;;;;5061399;28;20016;-77
2023/05/23 04:55:05;;;;;;;10.95;5.47;;;;;;;;;;5052243;28;20033;-76
2023/05/23 04:57:31;;;;;;;13.80;5.45;;;;;;;;;;5046031;28;20044;-75
2023/05/23 04:59:56;;;;;;;14.60;5.50;;;;;;;;;;5048154;28;20025;-76
2023/05/23 05:02:22;;;;;;;13.82;5.82;;;;;;;;;;5046756;28;20108;-76
2023/05/23 05:04:47;;;;;;;11.50;5.70;;;;;;;;;;5059996;28;20471;-76
2023/05/23 05:07:12;;;;;;;13.80;5.40;;;;;;;;;;5069838;28;20020;-75
2023/05/23 05:09:38;;;;;;;13.18;5.32;;;;;;;;;;5062770;28;20008;-76
2023/05/23 05:12:03;;;;;;;14.13;4.72;;;;;;;;;;5055837;28;20024;-75
2023/05/23 05:14:29;;;;;;;17.95;6.07;;;;;;;;;;5047699;28;20039;-76
2023/05/23 05:16:56;;;;;;;14.50;4.97;;;;;;;;;;5039889;28;20028;-75
2023/05/23 05:19:22;;;;;;;14.50;5.80;;;;;;;;;;5048238;28;20022;-75
2023/05/23 05:21:47;;;;;;;11.00;5.10;;;;;;;;;;5062906;28;20032;-77
2023/05/23 05:24:13;;;;;;;12.23;4.70;;;;;;;;;;5070846;28;20024;-77
2023/05/23 05:26:38;;;;;;;12.85;4.97;;;;;;;;;;5064087;28;20119;-75
2023/05/23 05:29:03;;;;;;;15.13;5.00;;;;;;;;;;5044847;28;20033;-75
2023/05/23 05:31:29;;;;;;;12.05;4.78;;;;;;;;;;5044876;28;20028;-75
2023/05/23 05:33:54;;;;;;;11.85;5.13;;;;;;;;;;5044558;28;20548;-75
2023/05/23 05:36:20;;;;;;;14.15;4.70;;;;;;;;;;5062013;28;20029;-77
2023/05/23 05:38:46;;;;;;;12.75;4.53;;;;;;;;;;5041183;28;20021;-76
2023/05/23 05:41:12;;;;;;;10.85;4.38;;;;;;;;;;5060287;28;20041;-76
2023/05/23 05:43:37;;;;;;;10.65;4.57;;;;;;;;;;5053404;28;20052;-76
2023/05/23 05:46:03;;;;;;;12.25;3.75;;;;;;;;;;5040251;28;20067;-76
2023/05/23 05:48:28;;;;;;;6.93;3.08;;;;;;;;;;5036890;28;20029;-75
2023/05/23 05:50:53;;;;;;;10.60;2.92;;;;;;;;;;5062825;28;20100;-76
2023/05/23 05:53:19;;;;;;;13.43;3.70;;;;;;;;;;5060914;28;20021;-76
2023/05/23 05:55:44;;;;;;;6.72;2.90;;;;;;;;;;5063168;28;20029;-76
2023/05/23 05:58:09;;;;;;;7.18;3.00;;;;;;;;;;5058896;28;20028;-75
2023/05/23 06:00:40;;;;;;;7.05;2.90;;;;;;;;;;5065549;28;20037;-76
2023/05/23 06:03:06;;;;;;;9.07;3.10;;;;;;;;;;5059397;28;20032;-76
2023/05/23 06:05:32;;;;;;;7.47;3.08;;;;;;;;;;5052905;28;20013;-76
2023/05/23 06:07:57;;;;;;;8.70;3.08;;;;;;;;;;5041933;28;20448;-76
2023/05/23 06:10:23;;;;;;;7.80;3.75;;;;;;;;;;5052740;28;20037;-77
2023/05/23 06:12:49;;;;;;;8.35;3.08;;;;;;;;;;5050963;28;20028;-77
2023/05/23 06:15:14;;;;;;;9.57;3.67;;;;;;;;;;5037924;28;20397;-77
2023/05/23 06:17:40;;;;;;;6.53;3.33;;;;;;;;;;5048478;28;20025;-76
2023/05/23 06:20:07;;;;;;;7.30;3.20;;;;;;;;;;5054140;28;20025;-76
2023/05/23 06:22:32;;;;;;;6.18;2.88;;;;;;;;;;5058519;28;20026;-75
2023/05/23 06:24:58;;;;;;;8.55;2.85;;;;;;;;;;5038657;28;20100;-76
2023/05/23 06:27:23;;;;;;;9.10;3.10;;;;;;;;;;5052381;28;20052;-76
2023/05/23 06:29:49;;;;;;;10.95;3.40;;;;;;;;;;5054798;28;20067;-76
2023/05/23 06:32:14;;;;;;;8.73;3.00;;;;;;;;;;5044558;28;20031;-76
2023/05/23 06:34:40;;;;;;;8.57;3.33;;;;;;;;;;5054284;28;20090;-76
2023/05/23 06:37:05;;;;;;;7.20;3.20;;;;;;;;;;5054020;28;20048;-76
2023/05/23 06:39:31;;;;;;;8.82;2.80;;;;;;;;;;5059021;28;20052;-75
2023/05/23 06:41:56;;;;;;;9.35;3.25;;;;;;;;;;5058408;28;20386;-75
2023/05/23 06:44:22;;;;;;;8.88;3.17;;;;;;;;;;5042296;28;20483;-76
2023/05/23 06:46:47;;;;;;;8.05;2.92;;;;;;;;;;5055349;28;20083;-77
2023/05/23 06:49:13;;;;;;;8.82;3.10;;;;;;;;;;5059325;28;20024;-75
2023/05/23 06:51:38;;;;;;;7.85;3.17;;;;;;;;;;5059270;28;20024;-76
2023/05/23 06:54:05;;;;;;;7.82;3.28;;;;;;;;;;5059750;28;20069;-76
2023/05/23 06:56:30;;;;;;;8.15;3.13;;;;;;;;;;5051699;28;20028;-76
2023/05/23 06:58:56;;;;;;;8.57;3.20;;;;;;;;;;5052023;28;20511;-76
2023/05/23 07:01:21;;;;;;;7.88;3.03;;;;;;;;;;5050769;28;20052;-76
2023/05/23 07:03:46;;;;;;;7.45;3.20;;;;;;;;;;5057113;28;20036;-76
2023/05/23 07:06:12;;;;;;;11.15;3.70;;;;;;;;;;5051349;28;20553;-76
2023/05/23 07:08:38;;;;;;;8.85;3.50;;;;;;;;;;5038198;28;20025;-76
2023/05/23 07:11:04;;;;;;;7.43;3.35;;;;;;;;;;5064688;28;20473;-75
2023/05/23 07:13:29;;;;;;;11.95;3.63;;;;;;;;;;5061053;28;20086;-76
2023/05/23 07:15:55;;;;;;;7.55;3.28;;;;;;;;;;5048112;28;20400;-79
2023/05/23 07:18:20;;;;;;;11.13;3.55;;;;;;;;;;5030290;28;20027;-79
2023/05/23 07:20:46;;;;;;;6.72;2.88;;;;;;;;;;5051153;28;20028;-79
2023/05/23 07:23:11;;;;;;;11.40;3.58;;;;;;;;;;5051811;28;20025;-79
2023/05/23 07:25:39;;;;;;;7.20;3.50;;;;;;;;;;5053490;28;20160;-79
2023/05/23 07:28:04;;;;;;;8.60;3.47;;;;;;;;;;5041384;28;20025;-79
2023/05/23 07:30:30;;;;;;;8.60;3.65;;;;;;;;;;5045223;28;20033;-79
2023/05/23 07:32:55;;;;;;;9.15;3.38;;;;;;;;;;5046526;28;20078;-78
2023/05/23 07:35:24;;;;;;;8.25;3.45;;;;;;;;;;5033833;28;20047;-79
2023/05/23 07:37:53;;;;;;;8.63;3.30;;;;;;;;;;5047647;28;20047;-79
2023/05/23 07:40:20;;;;;;;7.28;3.47;;;;;;;;;;5031380;28;20024;-79
2023/05/23 07:42:46;;;;;;;8.93;3.67;;;;;;;;;;5038676;28;20342;-79
2023/05/23 07:45:11;;;;;;;7.38;3.42;;;;;;;;;;5038080;28;20537;-79
2023/05/23 07:47:37;;;;;;;9.60;3.83;;;;;;;;;;5027881;28;20041;-79
2023/05/23 07:50:04;;;;;;;7.15;3.20;;;;;;;;;;5049282;28;20111;-79
2023/05/23 07:52:30;;;;;;;6.85;3.10;;;;;;;;;;5046942;28;20025;-79
2023/05/23 07:54:56;;;;;;;7.05;2.80;;;;;;;;;;5047986;28;20389;-79
2023/05/23 07:57:23;;;;;;;7.32;2.85;;;;;;;;;;5047174;28;20021;-79
2023/05/23 07:59:49;;;;;;;5.25;2.70;;;;;;;;;;5051247;28;20120;-79
2023/05/23 08:02:14;;;;;;;8.55;2.92;;;;;;;;;;5031485;28;20170;-79
2023/05/23 08:04:40;;;;;;;8.85;2.55;;;;;;;;;;5047015;28;20079;-79
2023/05/23 08:07:07;;;;;;;5.90;2.80;;;;;;;;;;5034377;28;20629;-79
2023/05/23 08:09:32;;;;;;;6.03;2.30;;;;;;;;;;5045300;28;20025;-79
2023/05/23 08:11:58;;;;;;;5.07;1.98;;;;;;;;;;5031233;28;20028;-79
2023/05/23 08:14:23;;;;;;;4.38;2.30;;;;;;;;;;5021779;28;20048;-79
2023/05/23 08:16:48;;;;;;;6.35;1.80;;;;;;;;;;5032109;28;20111;-79
2023/05/23 08:19:14;;;;;;;6.15;1.75;;;;;;;;;;5050517;28;20033;-79
2023/05/23 08:21:40;;;;;;;6.40;1.77;;;;;;;;;;5032791;28;20079;-79
2023/05/23 08:24:05;;;;;;;5.82;1.83;;;;;;;;;;5047657;28;20366;-79
2023/05/23 08:26:33;;;;;;;5.65;1.92;;;;;;;;;;5039608;28;20025;-79
2023/05/23 08:29:01;;;;;;;6.00;1.75;;;;;;;;;;5043698;28;20035;-79
2023/05/23 08:31:27;;;;;;;6.40;1.85;;;;;;;;;;5032618;28;20465;-79
2023/05/23 08:33:52;;;;;;;9.52;2.25;;;;;;;;;;5046721;28;20040;-79
2023/05/23 08:36:18;;;;;;;11.32;1.90;;;;;;;;;;5051000;28;20033;-79
2023/05/23 08:38:43;;;;;;;6.38;1.77;;;;;;;;;;5025306;28;20021;-79
2023/05/23 08:41:17;;;;;;;6.45;1.50;;;;;;;;;;5051383;28;20035;-79
2023/05/23 08:43:43;;;;;;;7.20;2.00;;;;;;;;;;5030756;28;20052;-79
2023/05/23 08:46:08;;;;;;;10.40;1.92;;;;;;;;;;5050737;28;20033;-79
2023/05/23 08:48:37;;;;;;;10.18;1.73;;;;;;;;;;5047297;28;20071;-79
2023/05/23 08:51:03;;;;;;;6.13;1.88;;;;;;;;;;5032096;28;20086;-79
2023/05/23 08:53:31;;;;;;;6.65;1.90;;;;;;;;;;5046576;28;20092;-79
2023/05/23 08:56:01;;;;;;;6.25;1.90;;;;;;;;;;5029339;28;20095;-79
2023/05/23 08:58:30;;;;;;;6.05;1.55;;;;;;;;;;5044752;28;20021;-79
2023/05/23 09:00:56;;;;;;;5.70;1.70;;;;;;;;;;5033219;28;20029;-79
2023/05/23 09:03:24;;;;;;;8.10;2.40;;;;;;;;;;5045358;28;20381;-79
2023/05/23 09:05:50;;;;;;;8.75;2.15;;;;;;;;;;5050998;28;20024;-79
2023/05/23 09:08:15;;;;;;;8.40;1.65;;;;;;;;;;5033120;28;20472;-79
2023/05/23 09:10:41;;;;;;;8.02;1.50;;;;;;;;;;5050762;28;20035;-79
2023/05/23 09:13:08;;;;;;;6.28;1.80;;;;;;;;;;5031218;28;20021;-79
2023/05/23 09:15:34;;;;;;;8.40;2.00;;;;;;;;;;5042454;28;20488;-79
2023/05/23 09:18:03;;;;;;;8.75;2.00;;;;;;;;;;5046771;28;20029;-79
2023/05/23 09:20:28;;;;;;;7.05;1.80;;;;;;;;;;5028335;28;20024;-79
2023/05/23 09:22:54;;;;;;;8.57;1.80;;;;;;;;;;5056564;28;20091;-79
2023/05/23 09:25:20;;;;;;;5.47;1.55;;;;;;;;;;5036696;28;20028;-79
2023/05/23 09:27:45;;;;;;;7.45;1.70;;;;;;;;;;5032316;28;20040;-79
2023/05/23 09:30:11;;;;;;;9.00;2.00;;;;;;;;;;5042651;28;20083;-79
2023/05/23 09:32:37;;;;;;;6.25;2.03;;;;;;;;;;5041037;28;20091;-79
2023/05/23 09:35:05;;;;;;;8.30;2.00;;;;;;;;;;5047315;28;20052;-79
2023/05/23 09:37:36;;;;;;;7.03;1.92;;;;;;;;;;5040734;28;20043;-79
2023/05/23 09:40:12;;;;;;;6.20;1.70;;;;;;;;;;5050854;28;20028;-79
2023/05/23 09:42:43;;;;;;;10.40;1.80;;;;;;;;;;5042880;28;20481;-80
2023/05/23 09:45:09;;;;;;;7.47;2.05;;;;;;;;;;5029048;28;20119;-79
2023/05/23 09:47:34;;;;;;;7.90;1.67;;;;;;;;;;5028691;28;20021;-79
2023/05/23 09:50:00;;;;;;;5.97;1.60;;;;;;;;;;5045394;28;20028;-78
2023/05/23 09:52:25;;;;;;;10.00;2.30;;;;;;;;;;5057016;28;20025;-79
2023/05/23 09:54:51;;;;;;;8.57;1.92;;;;;;;;;;5050135;28;20025;-79
2023/05/23 09:57:18;;;;;;;6.30;2.00;;;;;;;;;;5051921;28;20032;-79
2023/05/23 09:59:52;;;;;;;11.60;2.67;;;;;;;;;;5048718;28;20881;-79
2023/05/23 10:02:42;;;;;;;10.25;1.85;;;;;;;;;;5028559;28;20031;-79
2023/05/23 10:05:11;;;;;;;12.02;2.00;;;;;;;;;;5045814;28;20035;-79
2023/05/23 10:07:38;;;;;;;7.95;2.15;;;;;;;;;;5051224;28;20489;-79
2023/05/23 10:10:05;;;;;;;5.95;1.77;;;;;;;;;;5033273;28;20112;-79
2023/05/23 10:12:31;;;;;;;7.60;1.90;;;;;;;;;;5054136;28;20021;-79
2023/05/23 10:15:01;;;;;;;10.02;2.42;;;;;;;;;;5034114;28;20392;-79
2023/05/23 10:17:55;;;;;;;10.20;1.95;;;;;;;;;;5036972;28;20074;-79
2023/05/23 10:20:24;;;;;;;8.27;2.20;;;;;;;;;;5036387;28;20043;-79
2023/05/23 10:22:50;;;;;;;6.97;1.90;;;;;;;;;;5036306;28;20021;-78
2023/05/23 10:25:16;;;;;;;9.77;2.22;;;;;;;;;;5053439;28;20025;-79
2023/05/23 10:27:42;;;;;;;7.28;2.33;;;;;;;;;;5043372;28;20024;-79
2023/05/23 10:30:08;;;;;;;6.68;1.85;;;;;;;;;;5046991;28;20025;-79
2023/05/23 10:32:38;;;;;;;5.57;1.70;;;;;;;;;;5050381;28;20028;-79
2023/05/23 10:35:16;;;;;;;4.97;1.83;;;;;;;;;;5036510;28;20020;-79
2023/05/23 10:38:03;;;;;;;8.88;2.40;;;;;;;;;;5047696;28;20040;-78
2023/05/23 10:40:41;;;;;;;8.52;2.08;;;;;;;;;;5045388;28;20207;-79
2023/05/23 10:43:29;;;;;;;8.75;2.60;;;;;;;;;;5031851;28;20036;-79
2023/05/23 10:45:55;;;;;;;6.90;1.92;;;;;;;;;;5054060;28;20043;-79
2023/05/23 10:48:31;;;;;;;6.10;2.00;;;;;;;;;;5046398;28;20025;-79
2023/05/23 10:51:10;;;;;;;6.05;1.75;;;;;;;;;;5059685;28;20032;-79
2023/05/23 10:53:40;;;;;;;8.52;2.20;;;;;;;;;;5051418;28;20204;-79
2023/05/23 10:56:07;;;;;;;5.75;1.65;;;;;;;;;;5031725;28;20069;-80
2023/05/23 10:58:35;;;;;;;5.35;1.70;;;;;;;;;;5051846;28;20389;-79
2023/05/23 11:01:08;;;;;;;7.07;1.60;;;;;;;;;;5048835;28;20031;-79
2023/05/23 11:03:52;;;;;;;7.35;1.75;;;;;;;;;;5029625;28;20434;-79
2023/05/23 11:06:41;;;;;;;7.32;1.85;;;;;;;;;;5046609;28;20555;-80
2023/05/23 11:09:09;;;;;;;6.85;2.20;;;;;;;;;;5055709;28;20043;-79
2023/05/23 11:11:51;;;;;;;7.88;1.92;;;;;;;;;;5050158;28;20377;-79
2023/05/23 11:14:16;;;;;;;6.80;1.45;;;;;;;;;;5051151;28;20025;-78
2023/05/23 11:16:47;;;;;;;5.90;1.80;;;;;;;;;;5051574;28;20087;-79
2023/05/23 11:19:19;;;;;;;8.43;1.88;;;;;;;;;;5043002;28;20029;-79
2023/05/23 11:21:45;;;;;;;4.88;1.50;;;;;;;;;;5035620;28;20029;-79
2023/05/23 11:24:11;;;;;;;6.60;1.95;;;;;;;;;;5046688;28;20028;-79
2023/05/23 11:26:37;;;;;;;5.28;1.73;;;;;;;;;;5043486;28;20024;-79
2023/05/23 11:29:08;;;;;;;6.05;1.63;;;;;;;;;;5047644;28;20033;-79
2023/05/23 11:31:37;;;;;;;5.80;1.80;;;;;;;;;;5022051;28;20037;-79
2023/05/23 11:34:02;;;;;;;6.75;2.13;;;;;;;;;;5049010;28;20020;-79
2023/05/23 11:36:29;;;;;;;9.10;1.73;;;;;;;;;;5051263;28;20471;-80
2023/05/23 11:38:54;;;;;;;9.35;2.35;;;;;;;;;;5051834;28;20029;-79
2023/05/23 11:41:20;;;;;;;5.97;1.77;;;;;;;;;;5048085;28;20358;-79
2023/05/23 11:43:53;;;;;;;6.97;1.65;;;;;;;;;;5047938;28;20029;-79
2023/05/23 11:46:18;;;;;;;7.50;1.90;;;;;;;;;;5028415;28;20115;-79
2023/05/23 11:48:48;;;;;;;7.95;2.00;;;;;;;;;;5024672;28;20128;-79
2023/05/23 11:51:14;;;;;;;6.32;1.73;;;;;;;;;;5043575;28;20371;-79
2023/05/23 11:53:40;;;;;;;8.20;1.95;;;;;;;;;;5042458;28;20166;-79
2023/05/23 11:56:06;;;;;;;8.10;2.17;;;;;;;;;;5036246;28;20055;-79
2023/05/23 11:58:36;;;;;;;6.68;1.75;;;;;;;;;;5029723;28;20033;-78
2023/05/23 12:01:06;;;;;;;5.15;1.70;;;;;;;;;;5051146;28;20389;-79
2023/05/23 12:03:45;;;;;;;6.45;1.85;;;;;;;;;;5030426;28;20037;-79
2023/05/23 12:06:23;;;;;;;6.93;1.60;;;;;;;;;;5052516;28;20021;-79
2023/05/23 12:08:51;;;;;;;8.85;2.25;;;;;;;;;;5051342;28;20143;-79
2023/05/23 12:11:17;;;;;;;4.85;1.40;;;;;;;;;;5044193;28;20040;-79
2023/05/23 12:13:43;;;;;;;9.77;1.90;;;;;;;;;;5044546;28;20025;-78
2023/05/23 12:16:11;;;;;;;9.20;2.08;;;;;;;;;;5032684;28;20032;-79
2023/05/23 12:18:37;;;;;;;7.97;2.17;;;;;;;;;;5046592;28;20491;-79
2023/05/23 12:21:05;;;;;;;9.77;1.95;;;;;;;;;;5040851;28;20028;-79
2023/05/23 12:23:31;;;;;;;3.75;1.27;;;;;;;;;;5045402;28;20440;-79
2023/05/23 12:25:56;;;;;;;5.25;1.45;;;;;;;;;;5038462;28;20068;-79
2023/05/23 12:28:46;;;;;;;5.13;1.50;;;;;;;;;;5050831;28;20021;-79
2023/05/23 12:31:17;;;;;;;7.50;1.70;;;;;;;;;;5045102;28;20025;-79
2023/05/23 12:33:46;;;;;;;6.18;1.50;;;;;;;;;;5019466;28;20026;-79
2023/05/23 12:36:12;;;;;;;7.55;1.50;;;;;;;;;;5034792;28;20021;-79
2023/05/23 12:38:39;;;;;;;7.57;1.90;;;;;;;;;;5023347;28;20075;-79
2023/05/23 12:41:12;;;;;;;7.03;1.70;;;;;;;;;;5050808;28;20050;-79
2023/05/23 12:43:48;;;;;;;7.32;1.65;;;;;;;;;;5032781;28;20079;-79
2023/05/23 12:46:14;;;;;;;8.50;2.13;;;;;;;;;;5033754;28;20116;-79
2023/05/23 12:48:39;;;;;;;6.63;1.90;;;;;;;;;;5049172;28;20115;-79
2023/05/23 12:51:05;;;;;;;7.85;1.52;;;;;;;;;;5031880;28;20026;-79
2023/05/23 12:53:30;;;;;;;5.63;1.50;;;;;;;;;;5046311;28;20013;-79
2023/05/23 12:55:55;;;;;;;6.22;1.60;;;;;;;;;;5047120;28;20025;-79
2023/05/23 12:58:21;;;;;;;5.05;1.33;;;;;;;;;;5052039;28;20412;-79
2023/05/23 13:00:46;;;;;;;6.95;1.80;;;;;;;;;;5034038;28;20032;-79
2023/05/23 13:03:12;;;;;;;5.82;1.50;;;;;;;;;;5053289;28;20489;-79
2023/05/23 13:05:37;;;;;;;5.55;1.70;;;;;;;;;;5050941;28;20040;-79
2023/05/23 13:08:03;;;;;;;8.52;1.60;;;;;;;;;;5033890;28;20025;-79
2023/05/23 13:10:28;;;;;;;7.35;1.75;;;;;;;;;;5046439;28;20025;-79
2023/05/23 13:12:53;;;;;;;9.70;1.70;;;;;;;;;;5021309;28;20017;-79
2023/05/23 13:15:19;;;;;;;6.90;1.42;;;;;;;;;;5041840;28;20532;-79
2023/05/23 13:17:45;;;;;;;6.88;1.90;;;;;;;;;;5050254;28;20039;-79
2023/05/23 13:20:13;;;;;;;4.90;1.30;;;;;;;;;;5035705;28;20132;-79
2023/05/23 13:22:38;;;;;;;7.05;1.60;;;;;;;;;;5024881;28;20542;-79
2023/05/23 13:25:04;;;;;;;4.47;1.38;;;;;;;;;;5025318;28;20112;-79
2023/05/23 13:27:30;;;;;;;5.60;1.25;;;;;;;;;;5045715;28;20032;-79
2023/05/23 13:29:55;;;;;;;5.63;1.55;;;;;;;;;;5045622;28;20045;-79
2023/05/23 13:32:20;;;;;;;6.82;1.40;;;;;;;;;;5041424;28;20036;-79
2023/05/23 13:34:46;;;;;;;5.13;1.80;;;;;;;;;;5037331;28;20040;-79
2023/05/23 13:37:11;;;;;;;5.30;1.35;;;;;;;;;;5043111;28;20027;-79
2023/05/23 13:39:37;;;;;;;3.22;1.08;;;;;;;;;;5043897;28;20025;-79
2023/05/23 13:42:02;;;;;;;4.68;1.30;;;;;;;;;;5059429;28;20041;-78
2023/05/23 13:44:27;;;;;;;4.53;1.50;;;;;;;;;;5052068;28;20053;-79
2023/05/23 13:46:54;;;;;;;7.05;1.58;;;;;;;;;;5049524;28;20040;-79
2023/05/23 13:49:19;;;;;;;7.55;1.80;;;;;;;;;;5035813;28;20040;-79
2023/05/23 13:51:44;;;;;;;6.93;1.65;;;;;;;;;;5049911;28;20028;-79
2023/05/23 13:54:10;;;;;;;6.63;1.83;;;;;;;;;;5033764;28;20465;-79
2023/05/23 13:56:38;;;;;;;6.97;1.58;;;;;;;;;;5048386;28;20025;-79
2023/05/23 13:59:04;;;;;;;5.88;1.40;;;;;;;;;;5033652;28;20482;-79
2023/05/23 14:01:29;;;;;;;6.35;1.67;;;;;;;;;;5034244;28;20024;-79
2023/05/23 14:03:55;;;;;;;9.65;1.88;;;;;;;;;;5034753;28;20036;-79
2023/05/23 14:06:20;;;;;;;4.95;1.95;;;;;;;;;;5036815;28;20013;-79
2023/05/23 14:08:46;;;;;;;4.68;1.50;;;;;;;;;;5046155;28;20028;-79
2023/05/23 14:11:11;;;;;;;7.60;1.75;;;;;;;;;;5050565;28;20481;-79
2023/05/23 14:13:36;;;;;;;8.82;1.75;;;;;;;;;;5051341;28;20465;-78
2023/05/23 14:16:02;;;;;;;13.27;2.00;;;;;;;;;;5055834;28;20354;-77
2023/05/23 14:18:27;;;;;;;7.22;1.70;;;;;;;;;;5032723;28;20143;-79
2023/05/23 14:20:53;;;;;;;7.35;1.58;;;;;;;;;;5031004;28;20056;-79
2023/05/23 14:23:18;;;;;;;8.35;1.70;;;;;;;;;;5038354;28;20481;-79
2023/05/23 14:25:44;;;;;;;4.70;1.58;;;;;;;;;;5048975;28;20392;-79
2023/05/23 14:28:12;;;;;;;7.05;2.13;;;;;;;;;;5031008;28;20037;-79
2023/05/23 14:30:37;;;;;;;5.90;1.50;;;;;;;;;;5051341;28;20158;-79
2023/05/23 14:33:03;;;;;;;4.63;1.50;;;;;;;;;;5052324;28;20103;-79
2023/05/23 14:35:28;;;;;;;8.15;1.58;;;;;;;;;;5045497;28;20028;-79
2023/05/23 14:37:54;;;;;;;5.47;1.75;;;;;;;;;;5033100;28;20035;-78
2023/05/23 14:40:19;;;;;;;5.18;1.48;;;;;;;;;;5037875;28;20025;-79